Flight Track Log - Related Links

Times and Time Zones

All times are in EST time to prevent confusion due to time zone crossing. See the N9305N flight status page for this flight to view local times or setup timezone preferences in your user account.

Time Position Orientation Groundspeed Altitude Reporting Facility
EST Latitude Longitude Course Direction KTS MPH feet Rate Location/Type
Thu 10:32:55 AM 29.6450 -82.2783 152° Southeast 126 145 1,400  Level Jacksonville Center
Thu 10:33:56 AM 29.6158 -82.2906 200° South 114 131 2,000 703 Climbing Jacksonville Center
Thu 10:35:03 AM 29.5844 -82.2981 192° South 94 108 2,900 738 Climbing Jacksonville Center
Thu 10:35:58 AM 29.5594 -82.3053 194° South 95 109 3,500 600 Climbing Jacksonville Center
Thu 10:36:53 AM 29.5367 -82.3125 195° South 96 110 4,000 569 Climbing Jacksonville Center
Thu 10:37:00 AM 29.5473 -82.3057 192° South  Level Estimated
Thu 10:37:54 AM 29.5094 -82.3197 193° South 106 122 4,600  Level Jacksonville Center
Thu 10:38:55 AM 29.4781 -82.3225 184° South 112 129 5,000 198 Climbing Jacksonville Center
Thu 10:39:55 AM 29.4428 -82.3344 196° South 130 150 5,000  Level Jacksonville Center
Thu 10:41:03 AM 29.4011 -82.3419 189° South 127 146 5,000  Level Jacksonville Center
Thu 10:42:03 AM 29.3678 -82.3492 191° South 126 145 5,000  Level Jacksonville Center
Thu 10:43:05 AM 29.3322 -82.3589 193° South 126 145 5,000  Level Jacksonville Center
Thu 10:44:05 AM 29.2967 -82.3639 187° South 132 152 5,000  Level Jacksonville Center
Thu 10:45:07 AM 29.2614 -82.3736 194° South 121 139 5,000  Level Jacksonville Center
Thu 10:46:08 AM 29.2300 -82.3833 195° South 121 139 5,000  Level Jacksonville Center
Thu 10:47:09 AM 29.1967 -82.3883 187° South 128 147 5,000  Level Jacksonville Center
Thu 10:48:10 AM 29.1592 -82.3981 193° South 121 139 5,000  Level Jacksonville Center
Thu 10:49:11 AM 29.1258 -82.4078 194° South 123 142 5,000  Level Jacksonville Center
Thu 10:50:12 AM 29.0925 -82.4150 191° South 124 143 5,000  Level Jacksonville Center
Thu 10:51:13 AM 29.0589 -82.4197 187° South 122 140 5,000  Level Jacksonville Center
Thu 10:52:08 AM 29.0278 -82.4294 195° South 122 140 5,000  Level Jacksonville Center
Thu 10:53:09 AM 28.9964 -82.4392 195° South 118 136 5,000 -45 Level Jacksonville Center
Thu 10:54:22 AM 28.9547 -82.4464 189° South 124 143 4,900  Descending Jacksonville Center
Thu 10:55:29 AM 28.9172 -82.4536 190° South 118 136 5,000 47 Climbing Jacksonville Center
Thu 10:56:30 AM 28.8858 -82.4611 192° South 116 133 5,000  Level Jacksonville Center
Thu 10:58:07 AM 28.8333 -82.4667 185° South 119 137 5,000  Level Tampa TRACON
Thu 10:59:07 AM 28.8000 -82.4833 204° Southwest 121 139 5,000  Level Tampa TRACON
Thu 11:00:07 AM 28.7667 -82.4833 180° South 122 140 5,000  Level Tampa TRACON
Thu 11:01:08 AM 28.7333 -82.5000 204° Southwest 122 140 5,000  Level Tampa TRACON
Thu 11:02:08 AM 28.7000 -82.5000 180° South 122 140 5,000  Level Tampa TRACON
Thu 11:03:08 AM 28.6667 -82.5167 204° Southwest 121 139 5,000  Level Tampa TRACON
Thu 11:04:08 AM 28.6333 -82.5167 180° South 113 130 5,000  Level Tampa TRACON
Thu 11:05:14 AM 28.6000 -82.5333 204° Southwest 118 136 5,000  Level Tampa TRACON
Thu 11:06:08 AM 28.5833 -82.5500 221° Southwest 118 136 5,000  Level Tampa TRACON
Thu 11:07:14 AM 28.5500 -82.5667 204° Southwest 116 133 5,000  Level Tampa TRACON
Thu 11:08:14 AM 28.5167 -82.5833 204° Southwest 117 135 5,000  Level Tampa TRACON
Thu 11:09:08 AM 28.4833 -82.6000 204° Southwest 117 135 5,000  Level Tampa TRACON
Thu 11:10:08 AM 28.4667 -82.6167 221° Southwest 120 138 5,000  Level Tampa TRACON
Thu 11:11:08 AM 28.4333 -82.6167 180° South 121 139 5,000 -250 Level Tampa TRACON
Thu 11:12:08 AM 28.4000 -82.6333 204° Southwest 121 139 4,500 -476 Descending Tampa TRACON
Thu 11:13:14 AM 28.3667 -82.6500 204° Southwest 112 129 4,000 -238 Descending Tampa TRACON
Thu 11:14:14 AM 28.3333 -82.6667 204° Southwest 106 122 4,000  Level Tampa TRACON
Thu 11:15:09 AM 28.3167 -82.6833 221° Southwest 112 129 4,000  Level Tampa TRACON
Thu 11:16:09 AM 28.2833 -82.7000 204° Southwest 108 124 4,000  Level Tampa TRACON
Thu 11:17:09 AM 28.2667 -82.7333 240° Southwest 109 125 4,000  Level Tampa TRACON
Thu 11:18:09 AM 28.2333 -82.7500 204° Southwest 113 130 4,000  Level Tampa TRACON
Thu 11:19:09 AM 28.2167 -82.7667 221° Southwest 122 140 4,000  Level Tampa TRACON
Thu 11:20:15 AM 28.1833 -82.7667 180° South 120 138 4,000  Level Tampa TRACON
Thu 11:21:15 AM 28.1500 -82.7833 204° Southwest 116 133 4,000  Level Tampa TRACON
Thu 11:22:15 AM 28.1167 -82.7833 180° South 116 133 4,000  Level Tampa TRACON
Thu 11:23:15 AM 28.0833 -82.7833 180° South 124 143 4,000  Level Tampa TRACON
Thu 11:24:09 AM 28.0500 -82.7667 156° South 128 147 4,000  Level Tampa TRACON
Thu 11:25:15 AM 28.0167 -82.7667 180° South 125 144 4,000 -143 Level Tampa TRACON
Thu 11:26:15 AM 27.9833 -82.7667 180° South 120 138 3,700 -417 Descending Tampa TRACON
Thu 11:27:10 AM 27.9500 -82.7667 180° South 125 144 3,200 -417 Descending Tampa TRACON
Thu 11:28:10 AM 27.9167 -82.7667 180° South 124 143 2,900 -100 Descending Tampa TRACON
Thu 11:29:10 AM 27.8833 -82.7500 156° South 112 129 3,000 50 Climbing Tampa TRACON
Thu 11:30:10 AM 27.8500 -82.7500 180° South 121 139 3,000  Level Tampa TRACON
Thu 11:31:10 AM 27.8167 -82.7500 180° South 125 144 3,000 -50 Level Tampa TRACON
Thu 11:32:10 AM 27.7667 -82.7500 180° South 119 137 2,900 -50 Descending Tampa TRACON
Thu 11:33:10 AM 27.7500 -82.7333 138° Southeast 118 136 2,900  Level Tampa TRACON
Thu 11:34:10 AM 27.7167 -82.7333 180° South 116 133 2,900  Level Tampa TRACON
Thu 11:35:10 AM 27.6833 -82.7333 180° South 114 131 2,900 50 Level Tampa TRACON
Thu 11:36:10 AM 27.6667 -82.7000 119° Southeast 117 135 3,000 50 Climbing Tampa TRACON
Thu 11:37:10 AM 27.6667 -82.6667 90° East 121 139 3,000 -50 Level Tampa TRACON
Thu 11:38:10 AM 27.7000 -82.6500 24° Northeast 89 102 2,900 -150 Descending Tampa TRACON
Thu 11:39:10 AM 27.7167 -82.6500 360° North 89 102 2,700 -400 Descending Tampa TRACON
Thu 11:40:10 AM 27.7500 -82.6667 336° Northwest 99 114 2,100 -347 Descending Tampa TRACON
Thu 11:41:11 AM 27.7667 -82.6667 360° North 91 105 2,000 -50 Descending Tampa TRACON
Thu 11:42:11 AM 27.8000 -82.6667 360° North 100 115 2,000 -200 Level Tampa TRACON
Thu 11:43:11 AM 27.8167 -82.6667 360° North 82 94 1,600 -400 Descending Tampa TRACON
Thu 11:44:11 AM 27.8500 -82.6833 336° Northwest 76 87 1,200 -400 Descending Tampa TRACON
Thu 11:45:11 AM 27.8667 -82.6833 360° North 81 93 800 -400 Descending Tampa TRACON
Thu 11:46:11 AM 27.8833 -82.6833 360° North 81 93 400 -400 Descending Tampa TRACON

Login

Don't have an account? Register now (free) for customized features, flight alerts, and more!